Time;durP1;ratioP1;P1;durP2;ratioP2;P2;SDS_P1;SDS_P2;PMS_P1;PMS_P2;Temp;Humidity;BMP_temperature;BMP_pressure;BME280_temperature;BME280_humidity;BME280_pressure;Samples;Min_cycle;Max_cycle;Signal;HPM_P1;HPM_P2
2022/04/28 00:00:51;;;;;;;0.00;0.00;;;5.00;99.90;;;;;;5061528;28;20491;-58
2022/04/28 00:03:17;;;;;;;0.00;0.00;;;5.00;99.90;;;;;;5061515;28;20041;-58
2022/04/28 00:05:43;;;;;;;0.00;0.00;;;5.00;99.90;;;;;;5061615;28;20060;-59
2022/04/28 00:08:09;;;;;;;0.00;0.00;;;5.00;99.90;;;;;;5063052;28;20448;-58
2022/04/28 00:10:36;;;;;;;0.00;0.00;;;5.10;99.90;;;;;;5062461;28;20056;-58
2022/04/28 00:13:03;;;;;;;0.00;0.00;;;5.20;99.90;;;;;;5060666;28;20032;-58
2022/04/28 00:15:29;;;;;;;0.00;0.00;;;5.20;99.90;;;;;;5060503;28;20063;-59
2022/04/28 00:17:56;;;;;;;0.00;0.00;;;5.20;99.90;;;;;;5062589;28;20048;-58
2022/04/28 00:20:22;;;;;;;0.00;0.00;;;5.30;99.90;;;;;;5058855;28;20048;-58
2022/04/28 00:22:47;;;;;;;0.00;0.00;;;5.30;99.90;;;;;;5060868;28;20056;-58
2022/04/28 00:25:13;;;;;;;0.00;0.00;;;5.40;99.90;;;;;;5062462;28;20045;-59
2022/04/28 00:27:39;;;;;;;0.93;0.10;;;5.40;99.90;;;;;;5062539;28;20040;-58
2022/04/28 00:30:06;;;;;;;0.00;0.00;;;5.40;99.90;;;;;;5061810;28;20507;-58
2022/04/28 00:32:31;;;;;;;0.00;0.00;;;5.50;99.90;;;;;;5061427;28;20137;-60
2022/04/28 00:34:57;;;;;;;0.00;0.00;;;5.50;99.90;;;;;;5061529;28;20650;-58
2022/04/28 00:37:23;;;;;;;0.00;0.00;;;5.60;99.90;;;;;;5061489;28;20123;-58
2022/04/28 00:39:49;;;;;;;0.00;0.00;;;5.60;99.90;;;;;;5060221;28;20053;-60
2022/04/28 00:42:16;;;;;;;0.00;0.00;;;5.60;99.90;;;;;;5061393;28;20040;-58
2022/04/28 00:44:43;;;;;;;0.00;0.00;;;5.70;99.90;;;;;;5061648;28;20536;-58
2022/04/28 00:47:10;;;;;;;0.00;0.00;;;5.70;99.90;;;;;;5051554;28;20049;-58
2022/04/28 00:52:22;;;;;;;0.00;0.00;;;5.70;99.90;;;;;;5041316;28;20048;-58
2022/04/28 00:54:51;;;;;;;0.00;0.00;;;5.70;99.90;;;;;;5040983;28;20033;-58
2022/04/28 00:57:17;;;;;;;0.00;0.00;;;5.80;99.90;;;;;;5041202;28;20163;-58
2022/04/28 00:59:45;;;;;;;0.00;0.00;;;5.90;99.90;;;;;;5041924;28;20049;-58
2022/04/28 01:02:11;;;;;;;0.00;0.00;;;5.90;99.90;;;;;;5039563;28;20048;-59
2022/04/28 01:04:38;;;;;;;0.00;0.00;;;6.00;99.90;;;;;;5040397;28;20045;-58
2022/04/28 01:07:05;;;;;;;0.00;0.00;;;6.10;99.90;;;;;;5040555;28;20040;-58
2022/04/28 01:09:36;;;;;;;0.00;0.00;;;6.20;99.90;;;;;;5056608;28;20454;-58
2022/04/28 01:12:07;;;;;;;0.00;0.00;;;6.20;99.90;;;;;;5041549;28;20606;-58
2022/04/28 01:14:33;;;;;;;0.00;0.00;;;6.30;99.90;;;;;;5040655;28;20059;-58
2022/04/28 01:17:00;;;;;;;0.25;0.20;;;6.40;99.90;;;;;;5040648;28;20103;-58
2022/04/28 01:19:25;;;;;;;0.00;0.00;;;6.30;99.90;;;;;;5038751;28;20045;-58
2022/04/28 01:21:52;;;;;;;0.00;0.00;;;6.30;99.90;;;;;;5040177;28;20052;-58
2022/04/28 01:24:18;;;;;;;0.00;0.00;;;6.30;99.90;;;;;;5022923;28;20064;-58
2022/04/28 01:26:45;;;;;;;0.00;0.00;;;6.40;99.90;;;;;;5040926;28;20049;-58
2022/04/28 01:29:10;;;;;;;0.00;0.00;;;6.40;99.90;;;;;;5041046;28;20094;-60
2022/04/28 01:31:36;;;;;;;0.00;0.00;;;6.40;99.90;;;;;;5041167;28;20049;-58
2022/04/28 01:34:02;;;;;;;0.00;0.00;;;6.30;99.90;;;;;;5040950;28;20606;-58
2022/04/28 01:36:28;;;;;;;0.00;0.00;;;6.30;99.90;;;;;;5037856;28;20041;-58
2022/04/28 01:38:53;;;;;;;0.00;0.00;;;6.30;99.90;;;;;;5039752;28;20045;-58
2022/04/28 01:41:19;;;;;;;0.00;0.00;;;6.30;99.90;;;;;;5040365;28;20045;-58
2022/04/28 01:43:45;;;;;;;0.00;0.00;;;6.30;99.90;;;;;;5041280;28;20048;-59
2022/04/28 01:46:11;;;;;;;0.00;0.00;;;6.30;99.90;;;;;;5046565;28;20040;-60
2022/04/28 01:48:37;;;;;;;0.00;0.00;;;6.30;99.90;;;;;;5045182;28;20041;-58
2022/04/28 01:56:45;;;;;;;0.00;0.00;;;6.30;99.90;;;;;;5040054;28;20080;-58
2022/04/28 01:59:11;;;;;;;0.00;0.00;;;6.30;99.90;;;;;;5040353;28;20491;-62
2022/04/28 02:01:37;;;;;;;0.00;0.00;;;6.30;99.90;;;;;;5039528;28;20087;-58
2022/04/28 02:04:03;;;;;;;0.00;0.00;;;6.30;99.90;;;;;;5040594;28;20408;-58
2022/04/28 02:06:28;;;;;;;0.00;0.00;;;6.40;99.90;;;;;;5039020;28;20052;-59
2022/04/28 02:08:54;;;;;;;0.00;0.00;;;6.40;99.90;;;;;;5040276;28;20059;-57
2022/04/28 02:11:19;;;;;;;0.00;0.00;;;6.50;99.90;;;;;;5038367;28;20171;-60
2022/04/28 02:13:45;;;;;;;0.00;0.00;;;6.50;99.90;;;;;;5040704;28;20037;-61
2022/04/28 02:16:11;;;;;;;0.00;0.00;;;6.50;99.90;;;;;;5039372;28;20065;-59
2022/04/28 02:18:36;;;;;;;0.00;0.00;;;6.60;99.90;;;;;;5040138;28;20033;-58
2022/04/28 02:21:02;;;;;;;0.00;0.00;;;6.60;99.90;;;;;;5039775;28;20071;-58
2022/04/28 02:23:28;;;;;;;0.00;0.00;;;6.70;99.90;;;;;;5039823;28;20056;-58
2022/04/28 02:25:53;;;;;;;0.00;0.00;;;7.10;99.90;;;;;;5038939;28;20080;-58
2022/04/28 02:28:19;;;;;;;0.00;0.00;;;6.80;99.90;;;;;;5039475;28;20048;-58
2022/04/28 02:30:45;;;;;;;0.00;0.00;;;6.90;99.90;;;;;;5039189;28;20052;-60
2022/04/28 02:33:10;;;;;;;0.00;0.00;;;6.90;99.90;;;;;;5038068;28;20049;-60
2022/04/28 02:35:39;;;;;;;0.00;0.00;;;6.90;99.90;;;;;;5039579;28;20539;-60
2022/04/28 02:38:06;;;;;;;0.00;0.00;;;6.80;99.90;;;;;;5040324;28;20041;-58
2022/04/28 02:40:32;;;;;;;0.00;0.00;;;6.80;99.90;;;;;;5054928;28;20495;-58
2022/04/28 02:42:58;;;;;;;0.00;0.00;;;6.90;99.90;;;;;;5039304;28;20083;-58
2022/04/28 02:45:24;;;;;;;0.00;0.00;;;6.80;99.90;;;;;;5041663;28;20090;-58
2022/04/28 02:47:49;;;;;;;0.00;0.00;;;6.80;99.90;;;;;;5047368;28;20041;-58
2022/04/28 02:50:15;;;;;;;0.00;0.00;;;6.90;99.90;;;;;;5038685;28;20045;-59
2022/04/28 02:52:41;;;;;;;0.00;0.00;;;7.60;99.90;;;;;;5039543;28;20052;-59
2022/04/28 02:55:10;;;;;;;0.00;0.00;;;7.00;99.90;;;;;;5055455;28;20045;-58
2022/04/28 02:57:35;;;;;;;0.00;0.00;;;6.80;99.90;;;;;;5040096;28;20356;-58
2022/04/28 03:00:04;;;;;;;0.00;0.00;;;6.80;99.90;;;;;;5039348;28;20099;-58
2022/04/28 03:02:30;;;;;;;0.00;0.00;;;6.80;99.90;;;;;;5039439;28;20103;-59
2022/04/28 03:04:56;;;;;;;0.00;0.00;;;6.80;99.90;;;;;;5039051;28;20045;-58
2022/04/28 03:12:51;;;;;;;0.00;0.00;;;6.80;99.90;;;;;;5038641;28;20049;-58
2022/04/28 03:15:17;;;;;;;0.00;0.00;;;6.80;99.90;;;;;;5039007;28;20052;-59
2022/04/28 03:17:43;;;;;;;0.00;0.00;;;6.80;99.90;;;;;;5039585;28;20041;-58
2022/04/28 03:20:09;;;;;;;0.00;0.00;;;6.70;99.90;;;;;;5038980;28;20561;-58
2022/04/28 03:22:36;;;;;;;0.00;0.00;;;6.70;99.90;;;;;;5038764;28;20037;-58
2022/04/28 03:25:03;;;;;;;0.00;0.00;;;6.70;99.90;;;;;;5039764;28;20055;-58
2022/04/28 03:27:32;;;;;;;0.00;0.00;;;7.00;99.90;;;;;;5039155;28;20044;-58
2022/04/28 03:29:57;;;;;;;0.00;0.00;;;6.30;99.90;;;;;;5039056;28;20472;-58
2022/04/28 03:32:23;;;;;;;0.00;0.00;;;6.70;99.90;;;;;;5039101;28;20045;-58
2022/04/28 03:34:49;;;;;;;0.00;0.00;;;6.70;99.90;;;;;;5037870;28;20052;-58
2022/04/28 03:37:15;;;;;;;0.00;0.00;;;6.70;99.90;;;;;;5038011;28;20151;-58
2022/04/28 03:39:41;;;;;;;0.00;0.00;;;6.60;99.90;;;;;;5039118;28;20391;-59
2022/04/28 03:42:07;;;;;;;0.00;0.00;;;7.20;99.90;;;;;;5043738;28;20040;-58
2022/04/28 03:44:34;;;;;;;0.00;0.00;;;6.60;99.90;;;;;;5041492;28;20048;-58
2022/04/28 03:47:00;;;;;;;0.20;0.20;;;6.60;99.90;;;;;;5054497;28;20060;-58
2022/04/28 03:49:26;;;;;;;0.00;0.00;;;7.30;99.90;;;;;;5039867;28;20045;-58
2022/04/28 03:51:52;;;;;;;0.00;0.00;;;6.60;99.90;;;;;;5042802;28;20068;-58
2022/04/28 03:54:18;;;;;;;0.00;0.00;;;6.50;99.90;;;;;;5042806;28;20053;-59
2022/04/28 03:56:44;;;;;;;0.00;0.00;;;6.60;99.90;;;;;;5040910;28;20049;-58
2022/04/28 03:59:11;;;;;;;0.00;0.00;;;6.60;99.90;;;;;;5042466;28;20739;-59
2022/04/28 04:01:36;;;;;;;0.00;0.00;;;7.60;99.90;;;;;;5042749;28;20461;-58
2022/04/28 04:04:02;;;;;;;0.00;0.00;;;6.50;99.90;;;;;;5041682;28;20120;-59
2022/04/28 04:06:28;;;;;;;0.00;0.00;;;6.60;99.90;;;;;;5023022;28;20714;-58
2022/04/28 04:08:53;;;;;;;0.00;0.00;;;6.50;99.90;;;;;;5042805;28;20102;-58
2022/04/28 04:11:19;;;;;;;0.00;0.00;;;6.50;99.90;;;;;;5042169;28;20518;-58
2022/04/28 04:13:46;;;;;;;0.00;0.00;;;6.60;99.90;;;;;;5042851;28;20091;-58
2022/04/28 04:16:12;;;;;;;0.00;0.00;;;6.60;99.90;;;;;;5039997;28;20079;-59
2022/04/28 04:18:38;;;;;;;0.00;0.00;;;6.70;99.90;;;;;;5042324;28;20049;-58
2022/04/28 04:21:04;;;;;;;0.00;0.00;;;6.70;99.90;;;;;;5041760;28;20408;-58
2022/04/28 04:23:31;;;;;;;0.00;0.00;;;6.70;99.90;;;;;;5041299;28;20075;-58
2022/04/28 04:25:57;;;;;;;0.00;0.00;;;6.80;99.90;;;;;;5042427;28;20486;-58
2022/04/28 04:28:23;;;;;;;0.00;0.00;;;6.80;99.90;;;;;;5041807;28;20400;-58
2022/04/28 04:33:33;;;;;;;0.00;0.00;;;6.90;99.90;;;;;;5041871;28;20445;-58
2022/04/28 04:35:59;;;;;;;0.00;0.00;;;7.00;99.90;;;;;;5041667;28;20132;-58
2022/04/28 04:38:24;;;;;;;0.00;0.00;;;7.00;99.90;;;;;;5040235;28;20612;-58
2022/04/28 04:40:50;;;;;;;0.00;0.00;;;7.00;99.90;;;;;;5039990;28;20076;-58
2022/04/28 04:43:16;;;;;;;0.00;0.00;;;7.00;99.90;;;;;;5041857;28;20045;-60
2022/04/28 04:45:45;;;;;;;0.00;0.00;;;7.00;99.90;;;;;;5044463;28;20806;-58
2022/04/28 04:48:11;;;;;;;0.00;0.00;;;7.10;99.90;;;;;;5047933;28;20060;-60
2022/04/28 04:50:38;;;;;;;0.00;0.00;;;7.10;99.90;;;;;;5040119;28;20261;-58
2022/04/28 04:53:04;;;;;;;0.00;0.00;;;7.30;99.90;;;;;;5041935;28;20045;-58
2022/04/28 04:55:34;;;;;;;0.00;0.00;;;7.20;99.90;;;;;;5041566;28;20446;-58
2022/04/28 04:58:00;;;;;;;0.00;0.00;;;7.20;99.90;;;;;;5041336;28;20051;-58
2022/04/28 05:00:26;;;;;;;0.00;0.00;;;7.30;99.90;;;;;;5039603;28;20551;-58
2022/04/28 05:02:51;;;;;;;0.00;0.00;;;7.40;99.90;;;;;;5023887;28;20060;-58
2022/04/28 05:05:17;;;;;;;0.00;0.00;;;7.40;99.90;;;;;;5040395;28;20488;-59
2022/04/28 05:07:43;;;;;;;0.00;0.00;;;7.50;99.90;;;;;;5041568;28;20044;-58
2022/04/28 05:10:09;;;;;;;0.00;0.00;;;7.60;99.90;;;;;;5024183;28;20439;-58
2022/04/28 05:12:35;;;;;;;0.00;0.00;;;7.70;99.90;;;;;;5041691;28;20051;-59
2022/04/28 05:15:00;;;;;;;0.00;0.00;;;7.80;99.90;;;;;;5040812;28;20132;-58
2022/04/28 05:17:26;;;;;;;0.00;0.00;;;7.90;99.90;;;;;;5040654;28;20120;-59
2022/04/28 05:19:52;;;;;;;0.00;0.00;;;8.00;99.90;;;;;;5040794;28;20049;-58
2022/04/28 05:22:17;;;;;;;0.00;0.00;;;8.00;99.90;;;;;;5041022;28;20411;-59
2022/04/28 05:24:43;;;;;;;0.00;0.00;;;8.00;99.90;;;;;;5040595;28;20037;-59
2022/04/28 05:27:09;;;;;;;0.00;0.00;;;8.10;99.90;;;;;;5041398;28;20116;-58
2022/04/28 05:29:35;;;;;;;0.00;0.00;;;8.10;99.90;;;;;;5041116;28;20080;-58
2022/04/28 05:32:00;;;;;;;0.00;0.00;;;8.10;99.90;;;;;;5056819;28;20076;-58
2022/04/28 05:34:26;;;;;;;0.00;0.00;;;8.10;99.90;;;;;;5021305;28;20648;-58
2022/04/28 05:36:52;;;;;;;0.00;0.00;;;8.20;99.90;;;;;;5041124;28;20043;-58
2022/04/28 05:39:18;;;;;;;0.00;0.00;;;8.20;99.90;;;;;;5040888;28;20465;-59
2022/04/28 05:41:44;;;;;;;0.00;0.00;;;8.30;99.90;;;;;;5039097;28;20132;-58
2022/04/28 05:46:54;;;;;;;0.00;0.00;;;8.60;99.90;;;;;;5050654;28;20049;-58
2022/04/28 05:49:20;;;;;;;0.00;0.00;;;8.70;99.90;;;;;;5037834;28;20091;-59
2022/04/28 05:51:46;;;;;;;0.00;0.00;;;8.70;99.90;;;;;;5040899;28;20088;-58
2022/04/28 05:54:12;;;;;;;0.00;0.00;;;8.90;99.90;;;;;;5039168;28;20077;-59
2022/04/28 05:56:38;;;;;;;0.00;0.00;;;9.40;99.90;;;;;;5040973;28;20045;-58
2022/04/28 05:59:03;;;;;;;0.00;0.00;;;9.90;99.90;;;;;;5038779;28;20145;-58
2022/04/28 06:01:29;;;;;;;0.00;0.00;;;10.50;99.90;;;;;;5055596;28;20056;-58
2022/04/28 06:03:55;;;;;;;0.00;0.00;;;10.80;99.90;;;;;;5038602;28;20067;-58
2022/04/28 06:06:21;;;;;;;0.00;0.00;;;10.50;99.90;;;;;;5039088;28;20040;-58
2022/04/28 06:08:46;;;;;;;0.00;0.00;;;10.40;99.90;;;;;;5039547;28;20132;-58
2022/04/28 06:11:12;;;;;;;0.00;0.00;;;10.10;99.90;;;;;;5039974;28;20124;-59
2022/04/28 06:13:38;;;;;;;0.00;0.00;;;10.70;99.90;;;;;;5039231;28;20131;-59
2022/04/28 06:16:04;;;;;;;0.00;0.00;;;10.90;99.90;;;;;;5039695;28;20088;-59
2022/04/28 06:18:30;;;;;;;0.00;0.00;;;11.50;99.90;;;;;;5038211;28;20128;-59
2022/04/28 06:20:55;;;;;;;0.00;0.00;;;11.90;99.90;;;;;;5037840;28;20136;-58
2022/04/28 06:23:21;;;;;;;0.00;0.00;;;12.20;99.90;;;;;;5040011;28;20076;-58
2022/04/28 06:25:47;;;;;;;0.00;0.00;;;12.30;99.90;;;;;;5038805;28;20541;-58
2022/04/28 06:28:14;;;;;;;0.00;0.00;;;12.60;99.90;;;;;;5039503;28;20373;-59
2022/04/28 06:30:40;;;;;;;0.00;0.00;;;12.60;99.90;;;;;;5040243;28;20041;-61
2022/04/28 06:33:08;;;;;;;0.00;0.00;;;12.80;99.90;;;;;;5040744;28;20048;-59
2022/04/28 06:35:34;;;;;;;0.00;0.00;;;13.00;99.90;;;;;;5039106;28;20503;-59
2022/04/28 06:38:03;;;;;;;0.00;0.00;;;13.20;99.90;;;;;;5038736;28;20114;-59
2022/04/28 06:40:30;;;;;;;0.00;0.00;;;13.60;99.90;;;;;;5037912;28;20049;-59
2022/04/28 06:42:56;;;;;;;0.22;0.22;;;13.90;99.90;;;;;;5037847;28;20124;-59
2022/04/28 06:45:23;;;;;;;0.00;0.00;;;13.90;99.90;;;;;;5041260;28;20053;-59
2022/04/28 06:47:49;;;;;;;0.00;0.00;;;13.60;99.90;;;;;;5049206;28;20041;-58
2022/04/28 06:50:15;;;;;;;0.00;0.00;;;13.50;99.90;;;;;;5038673;28;20674;-59
2022/04/28 06:52:40;;;;;;;0.00;0.00;;;13.60;99.90;;;;;;5039096;28;20106;-60
2022/04/28 06:55:08;;;;;;;0.00;0.00;;;13.90;99.90;;;;;;5039087;28;20045;-59
2022/04/28 06:57:37;;;;;;;0.00;0.00;;;14.10;99.90;;;;;;5040177;28;20048;-59
2022/04/28 07:00:05;;;;;;;0.22;0.13;;;13.80;99.90;;;;;;5039329;28;20045;-59
2022/04/28 07:02:30;;;;;;;0.00;0.00;;;13.00;99.90;;;;;;5039250;28;20045;-59
2022/04/28 07:04:56;;;;;;;0.00;0.00;;;12.60;99.90;;;;;;5052169;28;20048;-59
2022/04/28 07:07:22;;;;;;;0.00;0.00;;;12.20;99.90;;;;;;5078372;28;20162;-59
2022/04/28 07:09:49;;;;;;;0.00;0.00;;;12.10;99.90;;;;;;5077783;28;20088;-58
2022/04/28 07:12:14;;;;;;;0.00;0.00;;;11.80;99.90;;;;;;5079351;28;20499;-59
2022/04/28 07:14:40;;;;;;;0.00;0.00;;;11.50;99.90;;;;;;5080063;28;20131;-59
2022/04/28 07:17:06;;;;;;;0.00;0.00;;;11.20;99.90;;;;;;5084179;28;20187;-59
2022/04/28 07:19:32;;;;;;;0.00;0.00;;;11.10;99.90;;;;;;5080611;28;20048;-59
2022/04/28 07:22:02;;;;;;;0.00;0.00;;;10.90;99.90;;;;;;5082681;28;20538;-58
2022/04/28 07:24:29;;;;;;;0.00;0.00;;;10.80;99.90;;;;;;5082539;28;20047;-59
2022/04/28 07:26:55;;;;;;;0.00;0.00;;;10.80;99.90;;;;;;5082989;28;20036;-60
2022/04/28 07:29:21;;;;;;;0.00;0.00;;;10.70;99.90;;;;;;5082531;28;20127;-60
2022/04/28 07:31:46;;;;;;;0.00;0.00;;;10.80;99.90;;;;;;5083525;28;20162;-60
2022/04/28 07:34:12;;;;;;;0.00;0.00;;;10.90;99.90;;;;;;5082356;28;20071;-60
2022/04/28 07:36:38;;;;;;;0.00;0.00;;;10.90;99.90;;;;;;5083168;28;20043;-60
2022/04/28 07:39:03;;;;;;;0.00;0.00;;;10.90;99.90;;;;;;5083851;28;20040;-58
2022/04/28 07:41:29;;;;;;;0.00;0.00;;;10.90;99.90;;;;;;5064421;28;20044;-59
2022/04/28 07:43:55;;;;;;;0.00;0.00;;;10.90;99.90;;;;;;5082742;28;20579;-58
2022/04/28 07:46:21;;;;;;;0.00;0.00;;;10.90;99.90;;;;;;5059819;28;20049;-62
2022/04/28 07:48:47;;;;;;;0.00;0.00;;;10.90;99.90;;;;;;5057384;28;20075;-59
2022/04/28 07:51:13;;;;;;;0.00;0.00;;;11.10;99.90;;;;;;5062299;28;20055;-59
2022/04/28 07:53:38;;;;;;;0.00;0.00;;;11.50;99.90;;;;;;5063037;28;20048;-59
2022/04/28 07:56:12;;;;;;;0.00;0.00;;;12.00;99.90;;;;;;5061697;28;20106;-58
2022/04/28 07:58:38;;;;;;;0.00;0.00;;;12.30;99.90;;;;;;5063308;28;20060;-59
2022/04/28 08:01:04;;;;;;;0.20;0.10;;;12.50;99.90;;;;;;5062404;28;20674;-60
2022/04/28 08:03:30;;;;;;;0.00;0.00;;;13.00;99.90;;;;;;5062348;28;20044;-59
2022/04/28 08:05:57;;;;;;;0.00;0.00;;;13.60;99.90;;;;;;5060620;28;20049;-58
2022/04/28 08:08:23;;;;;;;0.00;0.00;;;13.90;99.90;;;;;;5062389;28;20207;-58
2022/04/28 08:10:49;;;;;;;0.00;0.00;;;13.70;99.90;;;;;;5062381;28;20120;-58
2022/04/28 08:13:15;;;;;;;0.00;0.00;;;13.70;99.90;;;;;;5061276;28;20049;-58
2022/04/28 08:15:41;;;;;;;0.00;0.00;;;13.80;99.90;;;;;;5062439;28;20143;-58
2022/04/28 08:18:07;;;;;;;0.00;0.00;;;13.90;99.90;;;;;;5062816;28;20112;-58
2022/04/28 08:20:33;;;;;;;0.00;0.00;;;14.10;99.90;;;;;;5060869;28;20462;-59
2022/04/28 08:22:58;;;;;;;0.00;0.00;;;13.90;99.90;;;;;;5062653;28;20124;-59
2022/04/28 08:25:24;;;;;;;0.00;0.00;;;14.10;99.90;;;;;;5061806;28;20051;-59
2022/04/28 08:27:50;;;;;;;0.00;0.00;;;14.40;99.90;;;;;;5061785;28;20040;-59
2022/04/28 08:30:15;;;;;;;0.00;0.00;;;14.60;99.90;;;;;;5061688;28;20056;-61
2022/04/28 08:32:41;;;;;;;0.00;0.00;;;14.60;99.90;;;;;;5062141;28;20145;-59
2022/04/28 08:35:07;;;;;;;0.00;0.00;;;14.40;99.90;;;;;;5061701;28;20056;-59
2022/04/28 08:37:33;;;;;;;0.00;0.00;;;14.20;99.90;;;;;;5061386;28;20059;-59
2022/04/28 08:39:59;;;;;;;0.00;0.00;;;14.10;99.90;;;;;;5062567;28;20298;-59
2022/04/28 08:42:27;;;;;;;0.00;0.00;;;14.20;99.90;;;;;;5061627;28;20046;-59
2022/04/28 08:44:58;;;;;;;0.00;0.00;;;14.50;99.90;;;;;;5060141;28;20102;-59
2022/04/28 08:47:25;;;;;;;0.00;0.00;;;14.70;99.90;;;;;;5049670;28;20131;-60
2022/04/28 08:49:50;;;;;;;0.00;0.00;;;14.60;99.90;;;;;;5052093;28;20441;-58
2022/04/28 08:52:18;;;;;;;0.00;0.00;;;14.50;99.90;;;;;;5054934;28;20139;-59
2022/04/28 08:54:45;;;;;;;0.00;0.00;;;14.20;99.90;;;;;;5059668;28;20036;-58
2022/04/28 08:57:13;;;;;;;0.00;0.00;;;13.90;99.90;;;;;;5042733;28;20715;-60
2022/04/28 08:59:39;;;;;;;0.00;0.00;;;13.60;99.90;;;;;;5061229;28;20045;-58
2022/04/28 09:02:05;;;;;;;0.00;0.00;;;13.60;99.90;;;;;;5061901;28;20048;-59
2022/04/28 09:04:30;;;;;;;0.00;0.00;;;13.30;99.90;;;;;;5058134;28;20485;-58
2022/04/28 09:06:58;;;;;;;0.00;0.00;;;13.40;99.90;;;;;;5061464;28;20045;-61
2022/04/28 09:09:27;;;;;;;0.00;0.00;;;13.30;99.90;;;;;;5059485;28;20048;-59
2022/04/28 09:11:57;;;;;;;0.00;0.00;;;13.40;99.90;;;;;;5059796;28;20052;-59
2022/04/28 09:14:23;;;;;;;0.00;0.00;;;13.50;99.90;;;;;;5059517;28;20123;-59
2022/04/28 09:16:51;;;;;;;0.00;0.00;;;13.50;99.90;;;;;;5078744;28;20079;-60
2022/04/28 09:19:34;;;;;;;0.00;0.00;;;13.50;99.90;;;;;;5079755;28;20121;-59
2022/04/28 09:22:05;;;;;;;0.00;0.00;;;13.60;99.90;;;;;;5081759;28;20048;-59
2022/04/28 09:24:31;;;;;;;0.13;0.13;;;13.60;99.90;;;;;;5081306;28;20048;-58
2022/04/28 09:26:57;;;;;;;0.00;0.00;;;13.60;99.90;;;;;;5080724;28;20040;-58
2022/04/28 09:29:29;;;;;;;0.00;0.00;;;13.50;99.90;;;;;;5080736;28;20047;-60
2022/04/28 09:31:55;;;;;;;0.00;0.00;;;13.50;99.90;;;;;;5063072;28;20131;-59
2022/04/28 09:34:27;;;;;;;0.00;0.00;;;13.50;99.90;;;;;;5061210;28;20052;-59
2022/04/28 09:36:56;;;;;;;0.00;0.00;;;13.50;99.90;;;;;;5080994;28;20498;-60
2022/04/28 09:45:00;;;;;;;0.00;0.00;;;14.00;99.90;;;;;;5076586;28;20040;-59
2022/04/28 09:47:27;;;;;;;0.00;0.00;;;13.90;99.90;;;;;;5050361;28;20428;-59
2022/04/28 09:49:55;;;;;;;0.00;0.00;;;14.00;99.90;;;;;;5038712;28;20052;-60
2022/04/28 09:52:24;;;;;;;0.00;0.00;;;13.90;99.90;;;;;;5040575;28;20045;-61
2022/04/28 09:54:56;;;;;;;0.00;0.00;;;14.00;99.90;;;;;;5040486;28;20430;-60
2022/04/28 09:57:22;;;;;;;0.00;0.00;;;13.90;99.90;;;;;;5040428;28;20041;-59
2022/04/28 09:59:50;;;;;;;0.00;0.00;;;13.80;99.90;;;;;;5040994;28;20045;-60
2022/04/28 10:02:20;;;;;;;0.00;0.00;;;13.90;99.90;;;;;;5051211;28;20446;-60
2022/04/28 10:04:46;;;;;;;0.00;0.00;;;13.90;99.90;;;;;;5058429;28;20477;-59
2022/04/28 10:07:15;;;;;;;0.00;0.00;;;14.00;99.90;;;;;;5059713;28;20040;-59
2022/04/28 10:09:45;;;;;;;0.00;0.00;;;14.00;99.90;;;;;;5058412;28;20045;-59
2022/04/28 10:12:13;;;;;;;0.00;0.00;;;14.30;99.90;;;;;;5059860;28;20119;-60
2022/04/28 10:14:41;;;;;;;0.10;0.10;;;14.60;99.90;;;;;;5060023;28;20109;-59
2022/04/28 10:17:13;;;;;;;0.00;0.00;;;14.60;99.90;;;;;;5059963;28;20119;-59
2022/04/28 10:19:43;;;;;;;0.00;0.00;;;14.50;99.90;;;;;;5057547;28;20411;-59
2022/04/28 10:22:16;;;;;;;0.00;0.00;;;14.50;99.90;;;;;;5060344;28;20052;-60
2022/04/28 10:33:10;;;;;;;0.00;0.00;;;14.30;99.90;;;;;;5060071;28;20052;-59
2022/04/28 10:35:48;;;;;;;0.00;0.00;;;14.20;99.90;;;;;;5057347;28;20651;-59
2022/04/28 10:38:34;;;;;;;0.00;0.00;;;14.50;99.90;;;;;;5058242;28;20056;-60
2022/04/28 10:41:09;;;;;;;0.00;0.00;;;14.60;99.90;;;;;;5059057;28;20172;-59
2022/04/28 10:43:43;;;;;;;0.00;0.00;;;14.90;99.90;;;;;;5041651;28;20052;-59
2022/04/28 10:46:08;;;;;;;0.00;0.00;;;15.30;99.90;;;;;;5052891;28;20075;-62
2022/04/28 10:48:44;;;;;;;0.00;0.00;;;15.40;99.90;;;;;;5041877;28;20076;-60
2022/04/28 10:51:29;;;;;;;0.00;0.00;;;15.30;99.90;;;;;;5039654;28;20037;-60
2022/04/28 10:54:03;;;;;;;0.00;0.00;;;15.00;99.90;;;;;;5039649;28;20620;-59
2022/04/28 10:56:42;;;;;;;0.00;0.00;;;15.30;99.90;;;;;;5038105;28;20060;-59
2022/04/28 10:59:46;;;;;;;0.00;0.00;;;15.30;99.90;;;;;;5039239;28;20051;-60
2022/04/28 11:02:11;;;;;;;0.00;0.00;;;15.30;99.90;;;;;;5038304;28;20403;-60
2022/04/28 11:04:41;;;;;;;0.00;0.00;;;15.30;99.90;;;;;;5038837;28;20033;-59
2022/04/28 11:07:14;;;;;;;0.00;0.00;;;15.30;99.90;;;;;;5038299;28;20041;-59
2022/04/28 11:09:45;;;;;;;0.00;0.00;;;15.20;99.90;;;;;;5038912;28;20045;-60
2022/04/28 11:12:17;;;;;;;0.00;0.00;;;15.20;99.90;;;;;;5039268;28;20041;-62
2022/04/28 11:14:48;;;;;;;0.00;0.00;;;15.00;99.90;;;;;;5039376;28;20522;-60
2022/04/28 11:17:16;;;;;;;0.35;0.00;;;15.00;99.90;;;;;;5037832;28;20060;-61
2022/04/28 11:19:43;;;;;;;0.00;0.00;;;15.50;99.90;;;;;;5038756;28;20072;-60
2022/04/28 11:22:11;;;;;;;0.00;0.00;;;15.70;99.90;;;;;;5039856;28;20049;-60
2022/04/28 11:24:43;;;;;;;0.00;0.00;;;15.60;99.90;;;;;;5038977;28;20424;-60
2022/04/28 11:27:20;;;;;;;0.00;0.00;;;15.70;99.90;;;;;;5058892;28;20048;-61
2022/04/28 11:29:46;;;;;;;0.00;0.00;;;15.60;99.90;;;;;;5059210;28;20048;-60
2022/04/28 11:32:14;;;;;;;0.00;0.00;;;15.70;99.90;;;;;;5068415;28;20048;-60
2022/04/28 11:34:42;;;;;;;0.00;0.00;;;15.40;99.90;;;;;;5078249;28;20084;-59
2022/04/28 11:37:22;;;;;;;0.00;0.00;;;15.20;99.90;;;;;;5079669;28;20036;-62
2022/04/28 11:39:50;;;;;;;0.00;0.00;;;15.10;99.90;;;;;;5078879;28;20152;-59
2022/04/28 11:42:18;;;;;;;0.10;0.10;;;15.00;99.90;;;;;;5078927;28;20032;-60
2022/04/28 11:44:56;;;;;;;0.00;0.00;;;15.00;99.90;;;;;;5076117;28;20044;-58
2022/04/28 11:47:23;;;;;;;0.00;0.00;;;15.10;99.90;;;;;;5047718;28;20077;-59
2022/04/28 11:50:02;;;;;;;0.00;0.00;;;15.00;99.90;;;;;;5038460;28;20101;-59
2022/04/28 11:52:34;;;;;;;0.00;0.00;;;14.90;99.90;;;;;;5020245;28;20049;-59
2022/04/28 11:55:06;;;;;;;0.00;0.00;;;15.00;99.90;;;;;;5038943;28;20095;-59
2022/04/28 11:57:32;;;;;;;0.05;0.05;;;14.60;99.90;;;;;;5038748;28;20037;-59
2022/04/28 11:59:58;;;;;;;0.00;0.00;;;14.70;99.90;;;;;;5036953;28;20091;-59
2022/04/28 12:02:28;;;;;;;0.00;0.00;;;14.60;99.90;;;;;;5041289;28;20041;-59
2022/04/28 12:04:56;;;;;;;0.00;0.00;;;14.70;99.90;;;;;;5073038;28;20346;-59
2022/04/28 12:07:27;;;;;;;0.00;0.00;;;14.70;99.90;;;;;;5082468;28;20044;-60
2022/04/28 12:15:24;;;;;;;0.00;0.00;;;14.50;99.90;;;;;;5082112;28;20470;-60
2022/04/28 12:20:38;;;;;;;0.00;0.00;;;14.80;99.90;;;;;;5073367;28;20052;-60
2022/04/28 12:23:03;;;;;;;0.00;0.00;;;14.70;99.90;;;;;;5082520;28;20100;-59
2022/04/28 12:25:33;;;;;;;0.00;0.00;;;14.80;99.90;;;;;;5063526;28;20807;-60
2022/04/28 12:27:59;;;;;;;0.00;0.00;;;14.80;99.90;;;;;;5080363;28;20044;-59
2022/04/28 12:30:25;;;;;;;0.00;0.00;;;15.00;99.90;;;;;;5069189;28;20043;-60
2022/04/28 12:32:54;;;;;;;0.00;0.00;;;14.90;99.90;;;;;;5072791;28;20043;-59
2022/04/28 12:35:30;;;;;;;0.00;0.00;;;15.20;99.90;;;;;;5069467;28;20118;-60
2022/04/28 12:37:57;;;;;;;0.00;0.00;;;15.50;99.90;;;;;;5068504;28;20045;-60
2022/04/28 12:40:24;;;;;;;0.00;0.00;;;15.60;99.90;;;;;;5070552;28;20040;-59
2022/04/28 12:42:50;;;;;;;0.00;0.00;;;15.40;99.90;;;;;;5061355;28;20457;-59
2022/04/28 12:45:40;;;;;;;0.00;0.00;;;15.60;99.90;;;;;;5056849;28;20040;-64
2022/04/28 12:48:08;;;;;;;0.00;0.00;;;15.80;99.90;;;;;;5052190;28;20039;-66
2022/04/28 12:50:33;;;;;;;0.00;0.00;;;16.00;99.90;;;;;;5061352;28;20127;-65
2022/04/28 12:53:02;;;;;;;0.22;0.22;;;16.40;99.90;;;;;;5061783;28;20487;-65
2022/04/28 12:55:38;;;;;;;0.00;0.00;;;16.50;99.90;;;;;;5060920;28;20044;-65
2022/04/28 12:58:03;;;;;;;0.10;0.10;;;16.50;99.90;;;;;;5061449;28;20041;-65
2022/04/28 13:00:38;;;;;;;0.00;0.00;;;16.30;99.90;;;;;;5076158;28;20463;-65
2022/04/28 13:03:06;;;;;;;0.00;0.00;;;16.30;99.90;;;;;;5081261;28;20068;-65
2022/04/28 13:05:32;;;;;;;0.00;0.00;;;16.40;99.90;;;;;;5079606;28;20130;-65
2022/04/28 13:07:58;;;;;;;0.00;0.00;;;16.40;99.90;;;;;;5080082;28;20089;-65
2022/04/28 13:10:24;;;;;;;0.00;0.00;;;16.50;99.90;;;;;;5081038;28;20044;-65
2022/04/28 13:12:50;;;;;;;0.00;0.00;;;16.50;99.90;;;;;;5079838;28;20040;-63
2022/04/28 13:15:16;;;;;;;0.00;0.00;;;16.30;99.90;;;;;;5059997;28;20178;-64
2022/04/28 13:17:41;;;;;;;0.00;0.00;;;16.30;99.90;;;;;;5046007;28;20127;-64
2022/04/28 13:20:07;;;;;;;0.00;0.00;;;16.30;99.90;;;;;;5046148;28;20629;-64
2022/04/28 13:22:33;;;;;;;0.00;0.00;;;16.20;99.90;;;;;;5046907;28;20630;-63
2022/04/28 13:25:00;;;;;;;0.00;0.00;;;16.30;99.90;;;;;;5048518;28;20482;-64
2022/04/28 13:27:26;;;;;;;0.00;0.00;;;16.20;99.90;;;;;;5046058;28;20048;-64
2022/04/28 13:29:51;;;;;;;0.00;0.00;;;15.90;99.90;;;;;;5047191;28;20055;-64
2022/04/28 13:32:17;;;;;;;0.00;0.00;;;16.20;99.90;;;;;;5053723;28;20114;-64